Time;durP1;ratioP1;P1;durP2;ratioP2;P2;SDS_P1;SDS_P2;PMS_P1;PMS_P2;Temp;Humidity;BMP_temperature;BMP_pressure;BME280_temperature;BME280_humidity;BME280_pressure;Samples;Min_cycle;Max_cycle;Signal;HPM_P1;HPM_P2
2021/08/06 00:00:20;;;;;;;2.72;1.65;;;20.10;98.70;;;;;;5116849;28;20024;-49
2021/08/06 00:02:46;;;;;;;2.28;1.40;;;20.10;98.70;;;;;;5116719;28;20023;-49
2021/08/06 00:05:12;;;;;;;2.13;1.10;;;20.20;98.50;;;;;;5116876;28;20115;-50
2021/08/06 00:07:38;;;;;;;1.27;1.17;;;20.10;98.50;;;;;;5116791;28;20031;-49
2021/08/06 00:10:05;;;;;;;1.98;1.30;;;20.10;98.40;;;;;;5116613;28;20024;-50
2021/08/06 00:12:31;;;;;;;3.17;1.38;;;;;;;;;;5080659;28;20040;-50
2021/08/06 00:14:57;;;;;;;2.85;1.05;;;;;;;;;;5116071;28;20028;-49
2021/08/06 00:17:23;;;;;;;1.75;1.33;;;;;;;;;;5063910;28;20038;-48
2021/08/06 00:19:49;;;;;;;1.42;1.15;;;;;;;;;;5064343;28;20046;-50
2021/08/06 00:22:15;;;;;;;6.35;1.20;;;20.10;99.90;;;;;;5116420;28;20485;-49
2021/08/06 00:24:41;;;;;;;1.33;1.20;;;20.00;98.00;;;;;;5080824;28;20027;-49
2021/08/06 00:27:07;;;;;;;2.38;1.42;;;20.00;98.10;;;;;;5116180;28;20027;-50
2021/08/06 00:29:32;;;;;;;1.20;1.10;;;20.10;97.70;;;;;;5116308;28;20151;-49
2021/08/06 00:31:58;;;;;;;1.85;1.30;;;20.10;97.40;;;;;;5080430;28;20031;-49
2021/08/06 00:34:25;;;;;;;1.10;1.00;;;20.10;97.20;;;;;;5063995;28;20082;-49
2021/08/06 00:36:51;;;;;;;2.13;1.17;;;20.10;97.10;;;;;;5116138;28;20077;-49
2021/08/06 00:39:17;;;;;;;2.33;1.10;;;20.10;97.00;;;;;;5116167;28;20027;-49
2021/08/06 00:41:43;;;;;;;0.95;0.80;;;20.10;96.90;;;;;;5115953;28;20571;-48
2021/08/06 00:44:08;;;;;;;1.33;1.23;;;20.10;96.80;;;;;;5080388;28;20031;-50
2021/08/06 00:46:35;;;;;;;1.52;1.05;;;20.10;96.60;;;;;;5116030;28;20023;-50
2021/08/06 00:49:01;;;;;;;1.45;1.30;;;20.10;96.40;;;;;;5115853;28;20494;-50
2021/08/06 00:51:27;;;;;;;1.27;1.17;;;20.10;96.30;;;;;;5080195;28;20424;-49
2021/08/06 00:53:53;;;;;;;1.80;1.08;;;20.20;96.10;;;;;;5115931;28;20016;-50
2021/08/06 00:56:19;;;;;;;0.90;0.90;;;20.10;96.00;;;;;;5030268;28;20032;-50
2021/08/06 00:58:45;;;;;;;1.30;1.10;;;20.20;95.80;;;;;;5115760;28;20475;-49
2021/08/06 01:01:11;;;;;;;1.00;0.77;;;20.20;95.70;;;;;;5079753;28;20043;-49
2021/08/06 01:03:57;;;;;;;1.15;1.00;;;20.20;95.50;;;;;;5115512;28;20080;-49
2021/08/06 01:06:34;;;;;;;3.92;0.90;;;20.20;95.40;;;;;;5115932;28;20027;-48
2021/08/06 01:09:11;;;;;;;1.42;0.90;;;20.20;95.30;;;;;;5081766;28;20035;-50
2021/08/06 01:11:39;;;;;;;2.00;0.90;;;20.20;95.10;;;;;;5115563;28;20027;-49
2021/08/06 01:14:09;;;;;;;1.02;0.88;;;20.20;94.90;;;;;;5079648;28;20122;-49
2021/08/06 01:16:39;;;;;;;1.90;0.80;;;20.20;94.90;;;;;;5115554;28;20099;-49
2021/08/06 01:19:05;;;;;;;1.30;0.68;;;;;;;;;;5079481;28;20502;-49
2021/08/06 01:21:35;;;;;;;1.02;0.93;;;;;;;;;;5115402;28;20096;-50
2021/08/06 01:24:06;;;;;;;2.05;1.00;;;18.70;97.50;;;;;;5115245;28;20147;-48
2021/08/06 01:26:33;;;;;;;1.67;1.20;;;18.30;98.90;;;;;;5115202;28;20028;-49
2021/08/06 01:29:02;;;;;;;1.45;1.15;;;18.10;99.70;;;;;;5115278;28;20032;-49
2021/08/06 01:31:29;;;;;;;1.65;1.00;;;17.90;99.90;;;;;;5115063;28;20435;-49
2021/08/06 01:33:55;;;;;;;2.15;1.10;;;17.80;99.90;;;;;;5115182;28;20036;-49
2021/08/06 01:36:21;;;;;;;2.22;1.20;;;17.70;99.90;;;;;;5095965;28;20039;-49
2021/08/06 01:38:47;;;;;;;3.10;1.10;;;17.70;99.90;;;;;;5114805;28;20034;-50
2021/08/06 01:41:19;;;;;;;1.10;1.00;;;17.80;99.90;;;;;;5114775;28;20081;-50
2021/08/06 01:44:03;;;;;;;1.55;1.20;;;17.90;99.90;;;;;;5114958;28;20118;-49
2021/08/06 01:46:54;;;;;;;2.45;1.15;;;18.10;99.90;;;;;;5079108;28;20038;-49
2021/08/06 01:49:29;;;;;;;1.52;0.95;;;18.50;99.90;;;;;;5111494;28;20031;-49
2021/08/06 01:51:58;;;;;;;2.75;1.20;;;;;;;;;;5051887;28;20052;-48
2021/08/06 01:54:28;;;;;;;1.85;1.17;;;18.90;98.50;;;;;;5052031;28;20126;-49
2021/08/06 01:56:55;;;;;;;1.05;0.93;;;19.10;98.30;;;;;;5052048;28;20144;-49
2021/08/06 01:59:21;;;;;;;2.20;1.08;;;19.20;97.80;;;;;;5051886;28;20029;-49
2021/08/06 02:01:47;;;;;;;1.00;0.90;;;19.30;97.50;;;;;;5051950;28;20078;-49
2021/08/06 02:04:13;;;;;;;1.52;1.30;;;19.40;97.20;;;;;;5051766;28;20112;-49
2021/08/06 02:06:43;;;;;;;3.42;1.50;;;19.20;96.90;;;;;;5051974;28;20037;-49
2021/08/06 02:09:15;;;;;;;2.47;1.58;;;19.00;96.90;;;;;;5051551;28;20036;-50
2021/08/06 02:11:41;;;;;;;2.72;1.52;;;19.10;96.80;;;;;;5051561;28;20091;-49
2021/08/06 02:14:07;;;;;;;1.85;1.50;;;19.30;96.60;;;;;;5051669;28;20552;-48
2021/08/06 02:16:33;;;;;;;3.47;1.63;;;19.40;96.20;;;;;;5051387;28;20029;-50
2021/08/06 02:19:00;;;;;;;1.88;1.42;;;19.50;96.00;;;;;;5051435;28;20048;-49
2021/08/06 02:21:30;;;;;;;2.55;2.33;;;19.60;95.40;;;;;;5051447;28;20032;-51
2021/08/06 02:24:02;;;;;;;3.30;2.63;;;19.60;95.50;;;;;;5111816;28;20039;-49
2021/08/06 02:26:30;;;;;;;3.92;3.10;;;19.60;95.30;;;;;;5114176;28;20481;-50
2021/08/06 02:28:56;;;;;;;4.20;2.85;;;19.30;95.10;;;;;;5114201;28;20535;-49
2021/08/06 02:31:23;;;;;;;4.35;2.40;;;19.00;95.30;;;;;;5113813;28;20055;-49
2021/08/06 02:33:49;;;;;;;4.43;2.72;;;18.80;95.50;;;;;;5114120;28;20020;-50
2021/08/06 02:36:15;;;;;;;2.17;1.98;;;18.70;95.70;;;;;;5114046;28;20592;-49
2021/08/06 02:38:41;;;;;;;1.90;1.70;;;18.60;95.90;;;;;;5113419;28;20055;-48
2021/08/06 02:41:07;;;;;;;4.43;1.88;;;18.40;96.10;;;;;;5113872;28;20027;-49
2021/08/06 02:43:33;;;;;;;2.83;1.40;;;18.40;96.40;;;;;;5113735;28;20171;-50
2021/08/06 02:45:59;;;;;;;3.72;1.80;;;18.30;96.50;;;;;;5113791;28;20028;-48
2021/08/06 02:48:24;;;;;;;3.05;1.80;;;18.40;96.40;;;;;;5113862;28;20375;-49
2021/08/06 02:50:50;;;;;;;2.25;1.70;;;18.60;96.00;;;;;;5113484;28;20039;-49
2021/08/06 02:53:16;;;;;;;1.80;1.60;;;18.40;96.00;;;;;;5061579;28;20044;-49
2021/08/06 02:55:42;;;;;;;1.38;1.00;;;18.10;96.40;;;;;;5113823;28;20024;-48
2021/08/06 02:58:08;;;;;;;1.25;1.02;;;17.50;97.70;;;;;;5061411;28;20398;-49
2021/08/06 03:00:34;;;;;;;1.75;0.90;;;17.20;98.60;;;;;;5044092;28;20027;-48
2021/08/06 03:03:00;;;;;;;2.75;1.30;;;17.10;99.10;;;;;;5093733;28;20532;-49
2021/08/06 03:05:25;;;;;;;1.92;1.15;;;17.10;99.20;;;;;;5093123;28;20024;-50
2021/08/06 03:07:52;;;;;;;3.33;1.35;;;17.00;99.40;;;;;;5093267;28;20047;-52
2021/08/06 03:10:19;;;;;;;1.15;0.70;;;17.00;99.10;;;;;;5093401;28;20043;-50
2021/08/06 03:12:46;;;;;;;1.23;1.05;;;17.00;99.50;;;;;;5048837;28;20056;-50
2021/08/06 03:15:13;;;;;;;1.40;1.30;;;16.90;99.70;;;;;;5101176;28;20021;-50
2021/08/06 03:17:41;;;;;;;2.47;1.20;;;16.70;99.90;;;;;;5041421;28;20040;-48
2021/08/06 03:20:11;;;;;;;1.80;1.10;;;16.60;99.90;;;;;;5093344;28;20036;-48
2021/08/06 03:22:38;;;;;;;1.80;1.30;;;16.50;99.90;;;;;;5093168;28;20020;-48
2021/08/06 03:25:09;;;;;;;4.07;1.05;;;16.50;99.90;;;;;;5089850;28;20032;-49
2021/08/06 03:27:35;;;;;;;1.30;1.15;;;16.50;99.90;;;;;;5050611;28;20536;-49
2021/08/06 03:30:02;;;;;;;1.33;1.20;;;16.40;99.90;;;;;;5051014;28;20171;-49
2021/08/06 03:32:28;;;;;;;1.20;1.00;;;16.40;99.90;;;;;;5017605;28;20111;-50
2021/08/06 03:34:54;;;;;;;1.35;1.25;;;16.40;99.90;;;;;;5050740;28;20068;-51
2021/08/06 03:37:19;;;;;;;4.82;1.27;;;16.40;99.90;;;;;;5050922;28;20033;-49
2021/08/06 03:39:45;;;;;;;1.48;1.20;;;16.40;99.90;;;;;;5050786;28;20503;-50
2021/08/06 03:42:11;;;;;;;3.42;1.20;;;16.30;99.90;;;;;;5058460;28;20541;-51
2021/08/06 03:44:37;;;;;;;2.03;1.38;;;16.30;99.90;;;;;;5037429;28;20036;-48
2021/08/06 03:47:03;;;;;;;1.95;1.48;;;16.40;99.90;;;;;;5020463;28;20032;-48
2021/08/06 03:49:29;;;;;;;1.63;1.23;;;16.30;99.90;;;;;;5004253;28;20082;-47
2021/08/06 03:51:55;;;;;;;1.67;1.35;;;16.40;99.90;;;;;;5073146;28;20542;-48
2021/08/06 03:54:21;;;;;;;2.60;1.17;;;16.30;99.90;;;;;;5007928;28;20040;-47
2021/08/06 03:56:47;;;;;;;3.25;1.48;;;16.30;99.90;;;;;;5074337;28;20472;-49
2021/08/06 03:59:12;;;;;;;2.05;1.27;;;16.40;99.90;;;;;;5107223;28;20115;-49
2021/08/06 04:01:38;;;;;;;2.55;1.10;;;16.50;99.90;;;;;;5116110;28;20028;-49
2021/08/06 04:04:07;;;;;;;2.15;1.40;;;16.50;99.90;;;;;;5064094;28;20045;-48
2021/08/06 04:06:32;;;;;;;2.33;1.40;;;16.50;99.90;;;;;;5116717;28;20423;-48
2021/08/06 04:08:58;;;;;;;1.38;1.10;;;16.50;99.90;;;;;;5064292;28;20113;-49
2021/08/06 04:11:24;;;;;;;3.10;1.30;;;16.60;99.90;;;;;;5113951;28;20046;-48
2021/08/06 04:13:50;;;;;;;1.30;1.20;;;16.50;99.90;;;;;;5113352;28;20023;-49
2021/08/06 04:16:16;;;;;;;1.25;1.15;;;16.50;99.90;;;;;;5116162;28;20479;-48
2021/08/06 04:18:42;;;;;;;1.17;1.08;;;16.60;99.90;;;;;;5116115;28;20027;-47
2021/08/06 04:21:07;;;;;;;2.17;1.33;;;16.60;99.90;;;;;;5116580;28;20429;-49
2021/08/06 04:23:33;;;;;;;1.30;1.20;;;16.90;99.90;;;;;;5116449;28;20016;-48
2021/08/06 04:25:59;;;;;;;1.15;1.05;;;17.10;99.90;;;;;;5115778;28;20023;-48
2021/08/06 04:28:24;;;;;;;2.35;1.02;;;17.50;99.90;;;;;;5063269;28;20035;-48
2021/08/06 04:30:50;;;;;;;3.83;1.80;;;17.70;99.50;;;;;;5115187;28;20040;-49
2021/08/06 04:33:16;;;;;;;1.95;1.40;;;17.90;99.10;;;;;;5060389;28;20086;-48
2021/08/06 04:35:42;;;;;;;2.28;1.40;;;17.90;99.00;;;;;;5116283;28;20028;-49
2021/08/06 04:38:08;;;;;;;3.88;1.10;;;17.90;99.40;;;;;;5047219;28;20050;-49
2021/08/06 04:40:34;;;;;;;2.05;1.20;;;17.80;99.30;;;;;;5045825;28;20031;-48
2021/08/06 04:43:00;;;;;;;1.15;1.05;;;17.60;99.70;;;;;;5097189;28;20044;-49
2021/08/06 04:45:26;;;;;;;1.80;1.10;;;17.60;99.90;;;;;;5063631;28;20036;-48
2021/08/06 04:47:54;;;;;;;1.48;1.27;;;17.60;99.90;;;;;;5115908;28;20027;-49
2021/08/06 04:50:21;;;;;;;2.47;1.30;;;17.60;99.90;;;;;;5115434;28;20027;-48
2021/08/06 04:52:47;;;;;;;1.95;1.65;;;17.70;99.90;;;;;;5111907;28;20162;-49
2021/08/06 04:55:13;;;;;;;2.22;1.30;;;17.90;99.90;;;;;;5019694;28;20122;-48
2021/08/06 04:57:39;;;;;;;4.07;1.42;;;17.90;99.90;;;;;;5051507;28;20033;-48
2021/08/06 05:00:07;;;;;;;1.58;1.40;;;17.90;99.90;;;;;;5035545;28;20032;-48
2021/08/06 05:02:33;;;;;;;2.30;1.67;;;17.90;99.90;;;;;;5035231;28;20048;-48
2021/08/06 05:05:01;;;;;;;2.17;1.50;;;18.00;99.90;;;;;;5049659;28;20016;-49
2021/08/06 05:07:27;;;;;;;3.00;1.60;;;18.10;99.90;;;;;;5052299;28;20041;-48
2021/08/06 05:09:53;;;;;;;2.30;1.60;;;18.20;99.90;;;;;;5018530;28;20043;-49
2021/08/06 05:12:19;;;;;;;2.15;1.48;;;18.30;99.90;;;;;;5022314;28;20048;-49
2021/08/06 05:14:44;;;;;;;2.60;1.70;;;18.50;99.90;;;;;;5052609;28;20025;-48
2021/08/06 05:17:10;;;;;;;3.30;1.75;;;18.60;99.90;;;;;;5052307;28;20076;-47
2021/08/06 05:19:36;;;;;;;1.95;1.40;;;18.70;99.90;;;;;;5051420;28;20021;-48
2021/08/06 05:22:02;;;;;;;3.72;2.10;;;18.90;99.90;;;;;;5018557;28;20041;-50
2021/08/06 05:24:28;;;;;;;2.88;2.42;;;19.10;99.90;;;;;;5051737;28;20035;-50
2021/08/06 05:26:54;;;;;;;3.90;2.17;;;19.30;99.90;;;;;;5036753;28;20112;-49
2021/08/06 05:29:20;;;;;;;3.08;2.47;;;19.40;99.50;;;;;;5105178;28;20044;-49
2021/08/06 05:31:46;;;;;;;3.63;2.70;;;19.50;99.30;;;;;;5114815;28;20550;-49
2021/08/06 05:34:11;;;;;;;5.22;4.72;;;19.60;99.20;;;;;;5060830;28;20038;-50
2021/08/06 05:36:37;;;;;;;5.03;4.53;;;19.60;99.00;;;;;;5071534;28;20079;-49
2021/08/06 05:39:04;;;;;;;3.90;3.50;;;19.80;98.60;;;;;;5100547;28;20424;-49
2021/08/06 05:41:30;;;;;;;2.63;2.40;;;20.00;98.40;;;;;;5106749;28;20030;-49
2021/08/06 05:43:55;;;;;;;1.88;1.58;;;20.20;98.10;;;;;;5109777;28;20015;-49
2021/08/06 05:46:21;;;;;;;2.85;1.48;;;20.30;97.30;;;;;;5072341;28;20064;-49
2021/08/06 05:48:47;;;;;;;2.45;1.40;;;20.40;97.10;;;;;;5110968;28;20020;-50
2021/08/06 05:51:13;;;;;;;1.40;1.00;;;20.40;96.60;;;;;;5104837;28;20110;-49
2021/08/06 05:53:38;;;;;;;2.47;1.30;;;20.50;97.00;;;;;;5054456;28;20096;-49
2021/08/06 05:56:04;;;;;;;1.77;1.23;;;20.70;96.60;;;;;;5114100;28;20076;-49
2021/08/06 05:58:30;;;;;;;1.63;1.35;;;20.70;95.50;;;;;;5103230;28;20490;-49
2021/08/06 06:00:56;;;;;;;3.53;1.08;;;21.00;95.90;;;;;;5103338;28;20028;-49
2021/08/06 06:03:22;;;;;;;0.90;0.90;;;21.10;95.10;;;;;;5043281;28;20036;-50
2021/08/06 06:05:48;;;;;;;2.42;1.30;;;21.40;95.10;;;;;;5034477;28;20068;-49
2021/08/06 06:08:14;;;;;;;1.85;1.13;;;21.70;94.80;;;;;;5056451;28;20033;-49
2021/08/06 06:10:40;;;;;;;1.80;1.13;;;21.80;93.60;;;;;;5056898;28;20032;-49
2021/08/06 06:13:06;;;;;;;1.13;0.90;;;21.80;93.60;;;;;;5037367;28;20048;-49
2021/08/06 06:15:31;;;;;;;2.08;1.13;;;21.90;93.20;;;;;;5068326;28;20414;-50
2021/08/06 06:17:57;;;;;;;2.42;0.90;;;21.90;91.90;;;;;;5054932;28;20036;-50
2021/08/06 06:20:25;;;;;;;1.30;1.17;;;22.00;93.40;;;;;;5021580;28;20033;-50
2021/08/06 06:22:51;;;;;;;1.73;1.00;;;22.20;93.20;;;;;;5071549;28;20128;-50
2021/08/06 06:25:17;;;;;;;1.10;1.00;;;22.20;92.30;;;;;;5054803;28;20028;-50
2021/08/06 06:27:51;;;;;;;1.30;0.90;;;22.30;91.60;;;;;;5071416;28;20090;-50
2021/08/06 06:30:18;;;;;;;1.30;1.20;;;22.60;91.90;;;;;;5071611;28;20068;-49
2021/08/06 06:32:44;;;;;;;0.98;0.68;;;22.70;91.60;;;;;;5071554;28;20135;-50
2021/08/06 06:35:10;;;;;;;1.10;0.90;;;22.90;90.20;;;;;;5090187;28;20070;-50
2021/08/06 06:37:36;;;;;;;0.93;0.70;;;22.80;90.20;;;;;;5075129;28;20073;-50
2021/08/06 06:40:02;;;;;;;0.80;0.80;;;22.80;88.50;;;;;;5093574;28;20028;-50
2021/08/06 06:42:29;;;;;;;2.35;0.65;;;22.90;87.50;;;;;;5057997;28;20403;-50
2021/08/06 06:44:55;;;;;;;0.65;0.47;;;23.00;89.80;;;;;;5093752;28;20032;-50
2021/08/06 06:47:20;;;;;;;0.50;0.50;;;22.90;84.60;;;;;;5093469;28;20540;-49
2021/08/06 06:49:46;;;;;;;1.23;0.70;;;23.00;83.30;;;;;;5093483;28;20032;-50
2021/08/06 06:52:12;;;;;;;0.88;0.75;;;23.30;83.50;;;;;;5093560;28;20040;-50
2021/08/06 06:54:38;;;;;;;0.50;0.50;;;23.40;85.70;;;;;;5108876;28;20047;-50
2021/08/06 06:57:04;;;;;;;0.60;0.50;;;23.60;82.70;;;;;;5093842;28;20051;-50
2021/08/06 06:59:29;;;;;;;1.33;0.65;;;23.80;82.40;;;;;;5091807;28;20044;-50
2021/08/06 07:01:55;;;;;;;0.50;0.50;;;24.10;80.00;;;;;;5093558;28;20053;-50
2021/08/06 07:04:21;;;;;;;3.25;0.50;;;24.30;78.60;;;;;;5093571;28;20053;-50
2021/08/06 07:06:46;;;;;;;0.70;0.47;;;24.10;76.20;;;;;;5108837;28;20044;-50
2021/08/06 07:09:12;;;;;;;0.65;0.45;;;24.40;74.90;;;;;;5093626;28;20102;-49
2021/08/06 07:11:38;;;;;;;0.52;0.52;;;24.50;76.60;;;;;;5108596;28;20472;-50
2021/08/06 07:14:04;;;;;;;0.55;0.30;;;24.60;76.60;;;;;;5093460;28;20082;-52
2021/08/06 07:16:30;;;;;;;0.68;0.60;;;24.70;74.70;;;;;;5092899;28;20028;-47
2021/08/06 07:18:55;;;;;;;0.55;0.50;;;24.40;74.10;;;;;;5093263;28;20032;-50
2021/08/06 07:21:23;;;;;;;0.43;0.40;;;24.60;74.50;;;;;;5093307;28;20032;-47
2021/08/06 07:23:51;;;;;;;1.15;0.50;;;24.40;74.70;;;;;;5093315;28;20123;-50
2021/08/06 07:26:17;;;;;;;0.45;0.40;;;24.80;75.30;;;;;;5103041;28;20085;-45
2021/08/06 07:28:43;;;;;;;1.88;0.60;;;;;;;;;;5076932;28;20053;-51
2021/08/06 07:31:09;;;;;;;1.20;0.47;;;;;;;;;;5082021;28;20173;-49
2021/08/06 07:33:36;;;;;;;0.43;0.43;;;;;;;;;;5049483;28;20110;-49
2021/08/06 07:36:02;;;;;;;0.88;0.40;;;25.70;71.50;;;;;;5085648;28;20376;-49
2021/08/06 07:38:27;;;;;;;1.52;0.65;;;25.60;72.60;;;;;;5050595;28;20400;-49
2021/08/06 07:40:55;;;;;;;1.05;0.55;;;25.50;71.80;;;;;;5084777;28;20039;-49
2021/08/06 07:43:21;;;;;;;0.70;0.60;;;;;;;;;;5067490;28;20033;-49
2021/08/06 07:45:47;;;;;;;1.60;0.80;;;25.90;70.70;;;;;;5062933;28;20180;-48
2021/08/06 07:48:14;;;;;;;1.23;0.70;;;26.10;71.80;;;;;;5068085;28;20056;-49
2021/08/06 07:50:41;;;;;;;1.17;0.70;;;;;;;;;;5074207;28;20059;-48
2021/08/06 07:53:08;;;;;;;1.05;0.50;;;26.40;70.50;;;;;;5073749;28;20044;-47
2021/08/06 07:55:33;;;;;;;3.42;0.65;;;26.50;70.40;;;;;;5070652;28;20045;-46
2021/08/06 07:58:00;;;;;;;1.10;0.70;;;;;;;;;;5062992;28;20024;-47
2021/08/06 08:00:26;;;;;;;0.68;0.57;;;26.70;69.70;;;;;;5093391;28;20036;-46
2021/08/06 08:02:51;;;;;;;1.67;0.40;;;26.80;70.70;;;;;;5044458;28;20043;-48
2021/08/06 08:05:21;;;;;;;0.70;0.65;;;26.60;70.70;;;;;;5096432;28;20119;-48
2021/08/06 08:07:47;;;;;;;0.95;0.50;;;26.60;68.30;;;;;;5096062;28;20024;-49
2021/08/06 08:10:13;;;;;;;0.50;0.50;;;26.70;68.90;;;;;;5096463;28;20028;-48
2021/08/06 08:12:39;;;;;;;0.93;0.50;;;26.90;67.40;;;;;;5101994;28;20078;-49
2021/08/06 08:15:06;;;;;;;0.30;0.30;;;;;;;;;;5105024;28;20031;-50
2021/08/06 08:17:36;;;;;;;1.60;0.40;;;27.30;67.70;;;;;;5041245;28;20049;-50
2021/08/06 08:20:01;;;;;;;0.50;0.45;;;27.10;67.30;;;;;;5006047;28;20040;-48
2021/08/06 08:22:27;;;;;;;0.43;0.30;;;27.20;67.60;;;;;;5053494;28;20164;-49
2021/08/06 08:24:53;;;;;;;0.30;0.30;;;27.30;66.50;;;;;;5053540;28;20037;-48
2021/08/06 08:27:19;;;;;;;2.25;0.52;;;27.20;67.20;;;;;;5036779;28;20106;-49
2021/08/06 08:29:48;;;;;;;0.73;0.57;;;27.20;66.20;;;;;;5053519;28;20041;-50
2021/08/06 08:32:16;;;;;;;0.52;0.30;;;27.30;65.70;;;;;;5053192;28;20091;-48
2021/08/06 08:34:41;;;;;;;3.17;0.65;;;27.50;63.80;;;;;;5036468;28;20119;-49
2021/08/06 08:37:08;;;;;;;0.20;0.20;;;27.80;63.80;;;;;;5052590;28;20113;-49
2021/08/06 08:39:35;;;;;;;0.63;0.50;;;27.90;64.00;;;;;;5053056;28;20111;-49
2021/08/06 08:42:02;;;;;;;0.55;0.40;;;27.90;63.20;;;;;;5057246;28;20041;-49
2021/08/06 08:44:34;;;;;;;0.30;0.30;;;27.90;63.50;;;;;;5073012;28;20032;-49
2021/08/06 08:47:02;;;;;;;0.55;0.30;;;28.00;64.40;;;;;;5072651;28;20365;-49
2021/08/06 08:49:31;;;;;;;0.55;0.38;;;28.30;63.10;;;;;;5073039;28;20044;-48
2021/08/06 08:51:57;;;;;;;0.60;0.40;;;28.10;63.30;;;;;;5073067;28;20468;-48
2021/08/06 08:54:23;;;;;;;0.55;0.52;;;28.00;63.10;;;;;;5084315;28;20047;-49
2021/08/06 08:56:49;;;;;;;0.90;0.73;;;28.20;61.30;;;;;;5115999;28;20076;-49
2021/08/06 08:59:15;;;;;;;0.73;0.50;;;28.30;61.20;;;;;;5116068;28;20555;-50
2021/08/06 09:01:41;;;;;;;1.45;0.50;;;28.30;61.50;;;;;;5079587;28;20122;-49
2021/08/06 09:04:24;;;;;;;2.05;0.70;;;;;;;;;;5115822;28;20024;-49
2021/08/06 09:06:51;;;;;;;1.55;0.50;;;28.90;76.70;;;;;;5096579;28;20074;-51
2021/08/06 09:09:22;;;;;;;2.30;0.60;;;28.90;62.60;;;;;;5115489;28;20055;-49
2021/08/06 09:12:05;;;;;;;2.85;0.80;;;29.10;62.00;;;;;;5079748;28;20040;-49
2021/08/06 09:14:32;;;;;;;0.60;0.60;;;29.20;62.70;;;;;;5062850;28;20043;-49
2021/08/06 09:17:05;;;;;;;1.13;0.60;;;29.00;61.80;;;;;;5115265;28;20498;-49
2021/08/06 09:19:40;;;;;;;1.13;0.60;;;29.00;61.80;;;;;;5115668;28;20140;-48
2021/08/06 09:22:13;;;;;;;0.75;0.63;;;29.40;60.90;;;;;;5115195;28;20024;-48
2021/08/06 09:24:57;;;;;;;1.55;0.63;;;29.70;58.90;;;;;;5115415;28;20118;-49
2021/08/06 09:27:22;;;;;;;2.45;0.70;;;29.80;59.10;;;;;;5115400;28;20345;-49
2021/08/06 09:29:48;;;;;;;1.10;0.70;;;29.90;59.60;;;;;;5078761;28;20050;-48
2021/08/06 09:32:14;;;;;;;0.70;0.70;;;30.20;60.70;;;;;;5114856;28;20110;-49
2021/08/06 09:34:43;;;;;;;2.75;0.68;;;29.70;58.80;;;;;;5101280;28;20028;-48
2021/08/06 09:37:11;;;;;;;1.13;0.60;;;29.50;60.40;;;;;;5114846;28;20038;-49
2021/08/06 09:39:42;;;;;;;1.00;0.70;;;29.30;59.40;;;;;;5115203;28;20093;-49
2021/08/06 09:42:19;;;;;;;1.08;0.73;;;29.60;60.20;;;;;;5114817;28;20083;-48
2021/08/06 09:44:55;;;;;;;2.65;0.95;;;29.70;58.30;;;;;;5114719;28;20039;-49
2021/08/06 09:47:22;;;;;;;1.55;0.73;;;30.10;57.60;;;;;;5114586;28;20043;-49
2021/08/06 09:49:51;;;;;;;0.70;0.70;;;30.70;58.60;;;;;;5113792;28;20096;-49
2021/08/06 09:52:17;;;;;;;2.40;0.77;;;31.00;58.30;;;;;;5109980;28;20406;-50
2021/08/06 09:54:50;;;;;;;1.00;0.90;;;;;;;;;;5078846;28;20047;-49
2021/08/06 09:57:16;;;;;;;0.73;0.73;;;31.10;57.00;;;;;;5114911;28;20040;-51
2021/08/06 09:59:42;;;;;;;2.67;1.10;;;31.10;57.60;;;;;;5114363;28;20035;-50
2021/08/06 10:02:14;;;;;;;0.73;0.63;;;;;;;;;;5078550;28;20538;-50
2021/08/06 10:04:41;;;;;;;1.00;0.80;;;;;;;;;;5078735;28;20061;-48
2021/08/06 10:07:08;;;;;;;0.93;0.70;;;30.60;57.00;;;;;;5114078;28;20467;-50
2021/08/06 10:09:34;;;;;;;0.77;0.75;;;30.70;56.50;;;;;;5114523;28;20035;-49
2021/08/06 10:12:01;;;;;;;1.73;0.93;;;31.00;56.50;;;;;;5114605;28;20431;-49
2021/08/06 10:14:27;;;;;;;0.88;0.70;;;30.90;56.30;;;;;;5114188;28;20387;-50
2021/08/06 10:16:55;;;;;;;0.60;0.60;;;31.10;56.70;;;;;;5114259;28;20498;-48
2021/08/06 10:19:21;;;;;;;1.73;0.73;;;31.20;56.30;;;;;;5061856;28;20040;-49
2021/08/06 10:21:47;;;;;;;1.05;0.77;;;31.40;55.80;;;;;;5114189;28;20034;-49
2021/08/06 10:24:16;;;;;;;2.85;0.70;;;31.30;55.70;;;;;;5114183;28;20031;-50
2021/08/06 10:26:44;;;;;;;0.98;0.88;;;30.80;56.40;;;;;;5114210;28;20031;-48
2021/08/06 10:29:11;;;;;;;2.38;0.82;;;31.20;55.60;;;;;;5113728;28;20027;-49
2021/08/06 10:31:37;;;;;;;0.85;0.85;;;;;;;;;;5114020;28;20074;-48
2021/08/06 10:34:13;;;;;;;2.53;1.10;;;31.80;58.70;;;;;;5114061;28;20035;-49
2021/08/06 10:36:40;;;;;;;0.80;0.70;;;32.00;56.30;;;;;;5113068;28;20498;-48
2021/08/06 10:39:36;;;;;;;4.05;0.98;;;32.10;55.80;;;;;;5113707;28;20063;-48
2021/08/06 10:42:03;;;;;;;2.60;0.80;;;32.00;55.50;;;;;;5071020;28;20501;-48
2021/08/06 10:44:58;;;;;;;0.73;0.65;;;32.00;55.80;;;;;;5050698;28;20244;-48
2021/08/06 10:47:52;;;;;;;1.35;0.90;;;31.70;55.20;;;;;;5059918;28;20040;-50
2021/08/06 10:50:20;;;;;;;6.43;2.00;;;31.50;56.60;;;;;;5070852;28;20508;-50
2021/08/06 10:53:17;;;;;;;0.88;0.80;;;32.20;55.60;;;;;;5050266;28;20044;-48
2021/08/06 10:55:43;;;;;;;2.35;1.23;;;31.80;55.90;;;;;;5030976;28;20437;-48
2021/08/06 10:58:08;;;;;;;1.92;1.10;;;31.90;55.60;;;;;;5030734;28;20122;-50
2021/08/06 11:00:36;;;;;;;2.13;1.42;;;31.70;56.30;;;;;;5033386;28;20075;-48
2021/08/06 11:03:02;;;;;;;2.03;1.10;;;32.10;56.20;;;;;;5002068;28;20404;-50
2021/08/06 11:05:33;;;;;;;2.90;1.20;;;32.20;55.90;;;;;;5027976;28;21162;-48
2021/08/06 11:08:00;;;;;;;4.70;1.33;;;32.50;56.30;;;;;;5015055;28;20046;-50
2021/08/06 11:10:50;;;;;;;0.95;0.85;;;32.80;53.90;;;;;;5015003;28;20044;-51
2021/08/06 11:13:46;;;;;;;2.70;1.25;;;32.10;54.50;;;;;;5027905;28;20092;-49
2021/08/06 11:16:12;;;;;;;1.50;1.10;;;31.90;54.60;;;;;;5034905;28;20420;-49
2021/08/06 11:18:43;;;;;;;2.28;1.17;;;31.90;55.10;;;;;;5035169;28;20124;-50
2021/08/06 11:21:09;;;;;;;3.33;1.20;;;32.20;55.70;;;;;;5034766;28;20208;-49
2021/08/06 11:23:35;;;;;;;1.42;1.05;;;32.30;55.00;;;;;;5035857;28;20470;-49
2021/08/06 11:26:10;;;;;;;1.42;1.00;;;32.60;54.80;;;;;;5094854;28;20048;-50
2021/08/06 11:28:36;;;;;;;2.13;0.95;;;32.80;53.70;;;;;;5091378;28;20068;-49
2021/08/06 11:31:17;;;;;;;1.73;1.30;;;33.00;53.80;;;;;;5096354;28;20044;-50
2021/08/06 11:33:43;;;;;;;1.55;0.93;;;33.00;53.50;;;;;;5081437;28;20059;-48
2021/08/06 11:36:18;;;;;;;1.80;1.20;;;33.00;54.10;;;;;;5117216;28;20042;-50
2021/08/06 11:38:44;;;;;;;2.72;1.00;;;32.60;55.20;;;;;;5081695;28;20054;-49
2021/08/06 11:41:10;;;;;;;1.08;0.90;;;32.60;54.70;;;;;;5117630;28;20463;-50
2021/08/06 11:43:37;;;;;;;1.15;1.00;;;32.50;55.20;;;;;;5099375;28;20043;-48
2021/08/06 11:46:07;;;;;;;1.42;1.10;;;32.50;54.60;;;;;;5100615;28;20032;-50
2021/08/06 11:48:53;;;;;;;2.70;1.42;;;32.20;55.50;;;;;;5117057;28;20035;-50
2021/08/06 11:51:19;;;;;;;4.85;1.10;;;31.90;55.10;;;;;;5116823;28;20035;-49
2021/08/06 11:53:46;;;;;;;2.47;1.20;;;32.00;54.70;;;;;;5117247;28;20547;-51
2021/08/06 11:56:17;;;;;;;1.17;1.00;;;32.10;55.40;;;;;;5117127;28;20032;-49
2021/08/06 11:58:44;;;;;;;1.20;1.08;;;31.60;53.60;;;;;;5116903;28;20463;-50
2021/08/06 12:01:19;;;;;;;2.35;1.27;;;31.40;54.00;;;;;;5080926;28;20475;-49
2021/08/06 12:03:54;;;;;;;2.55;1.00;;;31.60;55.50;;;;;;5116961;28;20435;-49
2021/08/06 12:06:22;;;;;;;1.27;0.90;;;31.90;54.50;;;;;;5116395;28;20031;-50
2021/08/06 12:08:56;;;;;;;4.05;1.00;;;32.10;52.90;;;;;;5116985;28;20036;-50
2021/08/06 12:11:24;;;;;;;0.90;0.90;;;32.30;52.50;;;;;;5115578;28;20035;-49
2021/08/06 12:13:59;;;;;;;1.63;1.00;;;32.50;52.10;;;;;;5116633;28;20494;-50
2021/08/06 12:16:31;;;;;;;1.13;1.00;;;32.80;53.10;;;;;;5116440;28;20035;-49
2021/08/06 12:18:59;;;;;;;1.08;0.90;;;32.40;53.00;;;;;;5116890;28;20036;-50
2021/08/06 12:21:33;;;;;;;2.65;1.00;;;32.20;53.10;;;;;;5116136;28;20052;-49
2021/08/06 12:24:06;;;;;;;1.35;0.90;;;32.40;52.40;;;;;;5115508;28;20039;-49
2021/08/06 12:26:35;;;;;;;2.95;1.13;;;;;;;;;;5116468;28;20033;-50
2021/08/06 12:29:17;;;;;;;2.33;1.08;;;33.40;51.70;;;;;;5116463;28;20031;-48
2021/08/06 12:31:58;;;;;;;3.05;0.98;;;;;;;;;;5116241;28;20028;-49
2021/08/06 12:34:34;;;;;;;2.40;1.30;;;;;;;;;;5115937;28;20497;-48
2021/08/06 12:37:12;;;;;;;1.13;1.00;;;33.80;50.50;;;;;;5116730;28;20084;-50
2021/08/06 12:39:47;;;;;;;1.30;1.00;;;34.00;52.10;;;;;;5116410;28;20042;-48
2021/08/06 12:42:19;;;;;;;0.80;0.70;;;34.00;51.40;;;;;;5115802;28;20040;-50
2021/08/06 12:45:03;;;;;;;2.17;1.10;;;34.00;51.50;;;;;;5079710;28;20071;-50
2021/08/06 12:47:46;;;;;;;4.38;1.77;;;33.80;52.40;;;;;;5114609;28;20023;-47
2021/08/06 12:50:22;;;;;;;6.97;2.22;;;33.50;53.60;;;;;;5114480;28;20027;-53
2021/08/06 12:53:18;;;;;;;1.42;1.13;;;33.50;52.00;;;;;;5115271;28;20050;-53
2021/08/06 12:55:44;;;;;;;2.28;1.10;;;33.60;52.70;;;;;;5032462;28;20045;-52
2021/08/06 12:58:14;;;;;;;2.85;0.90;;;33.60;51.60;;;;;;5032446;28;20033;-52